DatumSoutěžní akceSoutěž#Body
04.10.2020O kutnohorský grošJun-II-C-STT 4 / 10897 F
19.09.2020DanceTime Cup 2020Jun-II-C-STT 3 / 5789 F
05.09.2020Jihlavský pohár 13.ročníkJun-II-D-LAT 2 / 818 F212 F5 C
05.09.2020Jihlavský pohár 13.ročníkJun-II-C-STT 2 / 717 F82 F
08.03.2020Jarní pohár ASTRA Praha 2020 -…Jun-II-D-LAT 2 / 818 F194 F4
07.03.2020Jarní pohár ASTRA Praha 2020 -…Jun-II-C-STT 5 / 12965
15.02.2020Benátecký pohár - 41. ročníkJun-II-D-LAT 4 / 119176 F3
12.01.2020DanceTime Gala Cup 2020Jun-II-D-LAT 5 / 118167 F3
15.12.2019Vánoční pohár TK AMICIA DANCE …Jun-II-D-LAT 10 / 122159 F3
15.12.2019Vánoční pohár TK AMICIA DANCE …Jun-I-D-LAT 6 / 95157 F3
15.12.2019Vánoční pohár TK AMICIA DANCE …Jun-II-C-STT 7 / 7056
15.12.2019Vánoční pohár TK AMICIA DANCE …Jun-I-C-STT 5 / 6156
07.12.2019Kamenický pohár 2019Jun-I-C-STT 4 / 5155
07.12.2019Kamenický pohár 2019Jun-II-D-LAT 6 – 7 / 92152 F3
07.12.2019Kamenický pohár 2019Jun-I-D-LAT 5 / 61150 F3
01.12.2019Zimní SPARTA CUP 2019Jun-II-C-STT 6 / 11754
01.12.2019Zimní SPARTA CUP 2019Jun-I-C-STT 4 / 11947
01.12.2019Zimní SPARTA CUP 2019Jun-II-D-LAT 3 / 1319 F149 F3
01.12.2019Zimní SPARTA CUP 2019Jun-I-D-LAT 1 / 1026 F130 F2
24.11.2019Podzimní pohár ASTRA Praha 201…Jun-II-D-LAT 10 – 11 / 110104 F
24.11.2019Podzimní pohár ASTRA Praha 201…Jun-I-D-LAT 5 / 118104 F
24.11.2019Podzimní pohár ASTRA Praha 201…Jun-II-C-STT 10 / 12238
24.11.2019Podzimní pohár ASTRA Praha 201…Jun-I-C-STT 7 / 8136
23.11.2019Vánoční cena 12.ročník Přebor …Jun-II-D-LAT 10 / 10096 F
23.11.2019Vánoční cena 12.ročník Přebor …Jun-I-D-LAT 1 / 317 F96 F
23.11.2019Vánoční cena 12.ročník Přebor …Jun-II-C-STT 9 / 9035
23.11.2019Vánoční cena 12.ročník Přebor …Jun-I-C-STT 5 – 6 / 7135
16.11.2019Pohár Královského města Slaný …Jun-II-C-STT 8 / 9134
16.11.2019Pohár Královského města Slaný …Jun-I-C-STT 6 / 9533
09.11.2019Podzimní pohár města KladnaJun-II-D-LAT 17 – 19 / 20179
09.11.2019Podzimní pohár města KladnaJun-I-D-LAT 13 – 14 / 17378
09.11.2019Podzimní pohár města KladnaJun-I-C-STT 2 / 51328
03.11.2019O pohár primátora města KladnaJun-II-D-LAT 5 / 161575
03.11.2019O pohár primátora města KladnaJun-I-D-LAT 7 – 8 / 15960
03.11.2019O pohár primátora města KladnaJun-II-C-STT 9 / 9015
03.11.2019O pohár primátora města KladnaJun-I-C-STT 6 / 9315
26.10.2019O cenu města Neratovic 2019 - …Jun-I-D-LAT 5 / 12951
26.10.2019O cenu města Neratovic 2019 - …Jun-II-C-STT 7 / 11412
26.10.2019O cenu města Neratovic 2019 - …Jun-I-C-STT 5 / 618
19.10.2019Prague Dance Festival For All …Jun-II-C-STT 6 – 7 / 817
19.10.2019Prague Dance Festival For All …Jun-II-D-LAT 6 / 10442
19.10.2019Prague Dance Festival For All …Jun-I-C-STT 4 / 866
19.10.2019Prague Dance Festival For All …Jun-I-D-LAT 6 / 10638
06.10.2019Velká cena, Planá nad Lužnicí,…Jun-II-D-LAT 5 / 6132
06.10.2019Velká cena, Planá nad Lužnicí,…Jun-I-D-LAT 4 / 6431
06.10.2019Velká cena, Planá nad Lužnicí,…Jun-II-D-STT 1 / 418 F205 F7 C
06.10.2019Velká cena, Planá nad Lužnicí,…Jun-I-D-STT 3 / 610187 F6
29.09.2019Poprázdninová cena KTS PříbramJun-II-D-STT 1 / 317 F177 F6
29.09.2019Poprázdninová cena KTS PříbramJun-I-D-STT 3 / 711160 F5
29.09.2019Poprázdninová cena KTS PříbramJun-II-D-LAT 4 / 4027
29.09.2019Poprázdninová cena KTS PříbramJun-I-D-LAT 5 / 6127
28.09.2019Velká cena MZ Dance Team a KD …Jun-I-D-LAT 7 / 13826
28.09.2019Velká cena MZ Dance Team a KD …Jun-II-D-STT 2 / 818 F149 F5
28.09.2019Velká cena MZ Dance Team a KD …Jun-I-D-STT 1 / 1634 F131 F4
22.09.2019ÚSTECKÝ POHÁR - JUBILEJNÍ 50.…Jun-II-D-LAT 9 / 10118
22.09.2019ÚSTECKÝ POHÁR - JUBILEJNÍ 50.…Jun-I-D-LAT 7 / 7017
22.09.2019ÚSTECKÝ POHÁR - JUBILEJNÍ 50.…Jun-II-D-STT 1 / 925 F97 F3
22.09.2019ÚSTECKÝ POHÁR - JUBILEJNÍ 50.…Jun-I-D-STT 1 / 824 F72 F2
21.09.2019MIA CUP 2019 - 2. ročníkJun-II-D-LAT 12 / 12017
21.09.2019MIA CUP 2019 - 2. ročníkJun-I-D-LAT 6 / 8217
21.09.2019MIA CUP 2019 - 2. ročníkJun-II-D-STT 1 / 824 F48 F
21.09.2019MIA CUP 2019 - 2. ročníkJun-I-D-STT 8 – 9 / 10124
16.06.2019Letní cena TK AMICIA DANCE PRA…Jun-II-D-LAT 10 / 14615
16.06.2019Letní cena TK AMICIA DANCE PRA…Jun-I-D-LAT 5 / 969
16.06.2019Letní cena TK AMICIA DANCE PRA…Jun-II-D-STT 7 / 12523
16.06.2019Letní cena TK AMICIA DANCE PRA…Jun-I-D-STT 5 / 8318
02.06.2019Letní pohár města KladnaJun-II-D-LAT 9 / 1233
02.06.2019Letní pohár města KladnaJun-I-E-LAT 2 / 919204 D
02.06.2019Letní pohár města KladnaJun-I-D-STT 5 / 12915
01.06.2019Cena města PříbramiJun-II-E-LAT 8 / 126185
01.06.2019Cena města PříbramiJun-I-E-LAT 3 / 1216179
04.05.2019O kutnohorský grošJun-II-E-LAT 14 / 184163
04.05.2019O kutnohorský grošJun-I-E-LAT 6 / 128159
04.05.2019O kutnohorský grošJun-II-D-STT 6 / 716
04.05.2019O kutnohorský grošJun-I-D-STT 9 – 10 / 1115
28.04.2019SPARTA CUP 2019 - 5. ročníkJun-II-E-LAT 7 / 2116151
28.04.2019SPARTA CUP 2019 - 5. ročníkJun-I-E-LAT 2 / 1426135
28.04.2019SPARTA CUP 2019 - 5. ročníkJun-II-D-STT 7 / 1034
28.04.2019SPARTA CUP 2019 - 5. ročníkJun-I-D-STT 6 / 601
30.03.2019Cena KTS PříbramJun-II-E-LAT 12 / 120109
30.03.2019Cena KTS PříbramJun-I-E-LAT 4 / 97109
30.03.2019Cena KTS PříbramJun-II-D-STT 6 / 601
30.03.2019Cena KTS PříbramJun-I-D-STT 8 / 911
24.03.2019Dance Time Cup 2019 - 2.ročníkJun-II-E-LAT 14 – 15 / 183102
24.03.2019Dance Time Cup 2019 - 2.ročníkJun-I-E-LAT 8 / 14899
24.03.2019Dance Time Cup 2019 - 2.ročníkJun-II-E-STT 4 / 1818202 D
24.03.2019Dance Time Cup 2019 - 2.ročníkJun-I-E-STT 3 / 1824184
17.03.2019Jihlavský pohár - 12.ročníkJun-II-E-LAT 9 – 11 / 15691
17.03.2019Jihlavský pohár - 12.ročníkJun-I-E-LAT 9 – 10 / 15785
17.03.2019Jihlavský pohár - 12.ročníkJun-II-E-STT 7 / 138160
17.03.2019Jihlavský pohár - 12.ročníkJun-I-E-STT 4 / 1313152
09.03.2019Jarní Pohár Astra Praha 2019 -…Jun-II-E-LAT 11 / 15478
09.03.2019Jarní Pohár Astra Praha 2019 -…Jun-I-E-LAT 7 / 151274
09.03.2019Jarní Pohár Astra Praha 2019 -…Jun-II-E-STT 4 / 1210139
09.03.2019Jarní Pohár Astra Praha 2019 -…Jun-I-E-STT 2 / 1325129
27.01.2019Zimní cena Hradce KrálovéJun-I-E-LAT 13 – 16 / 20462
27.01.2019Zimní cena Hradce KrálovéJun-II-E-STT 6 / 71104
27.01.2019Zimní cena Hradce KrálovéJun-I-E-STT 7 / 127103
19.01.2019Nezbedný bakalář 2019 ( 39. ro…Jun-I-E-LAT 6 / 711
19.01.2019Nezbedný bakalář 2019 ( 39. ro…Jun-II-E-STT 6 / 822
19.01.2019Nezbedný bakalář 2019 ( 39. ro…Jun-I-E-STT 5 / 722
13.01.2019DanceTime Gala Cup 2019Jun-II-E-LAT 7 / 1033
13.01.2019DanceTime Gala Cup 2019Jun-I-E-LAT 7 / 1166
13.01.2019DanceTime Gala Cup 2019Jun-I-E-STT 2 / 71717
09.12.2018Zimní SPARTA CUP 2018Jun-II-E-LAT 7 – 8 / 161010
09.12.2018Zimní SPARTA CUP 2018Jun-I-E-LAT 3 / 212727
09.12.2018Zimní SPARTA CUP 2018Jun-II-E-STT 1 / 51919
09.12.2018Zimní SPARTA CUP 2018Jun-I-E-STT 1 / 163434
24.11.2018Podzimní pohár ASTRA Praha 201…Jun-II-E-STT 8 / 1022
24.11.2018Podzimní pohár ASTRA Praha 201…Jun-I-E-STT 5 / 1077
17.11.2018Vltavský pohár Prahy 7Jun-I-E-LAT 7 / 922
17.11.2018Vltavský pohár Prahy 7Jun-I-E-STT 4 / 977
20.10.2018Cena Společenského centra Týne…Jun-II-E-LAT 11 / 1211
20.10.2018Cena Společenského centra Týne…Jun-I-E-LAT 5 – 6 / 822
20.10.2018Cena Společenského centra Týne…Jun-II-E-STT 7 – 8 / 800
20.10.2018Cena Společenského centra Týne…Jun-I-E-STT 7 / 811
23.09.2018Podzimní cena KTS PříbramJun-II-E-LAT 6 / 711
23.09.2018Podzimní cena KTS PříbramJun-I-E-LAT 5 / 833
23.09.2018Podzimní cena KTS PříbramJun-II-E-STT 8 – 9 / 900
23.09.2018Podzimní cena KTS PříbramJun-I-E-STT 5 / 833
— dancerank.cz